Time;durP1;ratioP1;P1;durP2;ratioP2;P2;SDS_P1;SDS_P2;PMS_P1;PMS_P2;Temp;Humidity;BMP_temperature;BMP_pressure;BME280_temperature;BME280_humidity;BME280_pressure;Samples;Min_cycle;Max_cycle;Signal;HPM_P1;HPM_P2
2022/04/09 00:02:34;;;;;;;3.00;2.72;;;;;;;;;;774017;76;26300;-73
2022/04/09 00:03:37;;;;;;;2.70;2.50;;;;;;;;;;773814;76;26343;-74
2022/04/09 00:04:50;;;;;;;3.30;3.00;;;;;;;;;;773734;76;26779;-73
2022/04/09 00:05:57;;;;;;;2.65;2.45;;;;;;;;;;773836;76;26333;-74
2022/04/09 00:16:03;;;;;;;3.35;2.72;;;;;;;;;;779293;76;26621;-73
2022/04/09 00:21:11;;;;;;;2.90;2.70;;;;;;;;;;807466;73;26585;-73
2022/04/09 00:22:14;;;;;;;3.58;2.98;;;;;;;;;;807946;73;26230;-73
2022/04/09 00:23:18;;;;;;;3.00;2.60;;;;;;;;;;808082;73;26358;-73
2022/04/09 00:24:22;;;;;;;4.58;2.80;;;;;;;;;;808199;73;26328;-73
2022/04/09 00:25:25;;;;;;;2.55;2.35;;;;;;;;;;808105;73;26675;-74
2022/04/09 00:33:11;;;;;;;2.47;2.37;;;;;;;;;;750702;79;26279;-73
2022/04/09 00:44:37;;;;;;;4.22;2.30;;;;;;;;;;754877;78;26160;-73
2022/04/09 00:45:40;;;;;;;3.72;2.40;;;;;;;;;;754761;78;26263;-72
2022/04/09 00:48:59;;;;;;;2.65;2.45;;;;;;;;;;754860;78;26740;-73
2022/04/09 01:00:56;;;;;;;2.15;2.05;;;;;;;;;;766197;76;26731;-74
2022/04/09 01:02:01;;;;;;;3.75;2.37;;;;;;;;;;753293;79;26321;-74
2022/04/09 01:12:57;;;;;;;2.83;2.60;;;;;;;;;;780975;76;26148;-73
2022/04/09 01:14:01;;;;;;;2.85;2.05;;;;;;;;;;780948;76;26262;-74
2022/04/09 01:15:10;;;;;;;2.30;2.20;;;;;;;;;;781081;76;26716;-73
2022/04/09 01:33:23;;;;;;;2.50;2.30;;;;;;;;;;764551;74;26254;-74
2022/04/09 01:34:26;;;;;;;3.75;2.37;;;;;;;;;;763918;77;26257;-74
2022/04/09 01:35:30;;;;;;;2.60;2.30;;;;;;;;;;763697;77;26360;-74
2022/04/09 01:41:59;;;;;;;2.47;2.20;;;;;;;;;;759324;78;26169;-72
2022/04/09 01:43:04;;;;;;;2.52;2.33;;;;;;;;;;759182;78;26354;-74
2022/04/09 01:44:07;;;;;;;2.37;2.15;;;;;;;;;;759419;78;26245;-75
2022/04/09 01:45:10;;;;;;;3.10;2.30;;;;;;;;;;759416;78;26248;-74
2022/04/09 01:49:54;;;;;;;2.12;1.92;;;;;;;;;;759526;78;26197;-75
2022/04/09 01:50:57;;;;;;;2.30;2.10;;;;;;;;;;759496;78;26326;-75
2022/04/09 01:52:00;;;;;;;4.00;2.35;;;;;;;;;;759276;78;26328;-73
2022/04/09 01:53:03;;;;;;;4.10;2.50;;;;;;;;;;759514;78;26724;-73
2022/04/09 01:54:06;;;;;;;3.33;2.15;;;;;;;;;;759362;78;26275;-73
2022/04/09 01:55:10;;;;;;;2.62;2.15;;;;;;;;;;759432;78;26271;-72
2022/04/09 01:59:58;;;;;;;6.58;3.85;;;;;;;;;;766530;77;26314;-72
2022/04/09 02:01:02;;;;;;;5.22;3.50;;;;;;;;;;766222;77;26319;-74
2022/04/09 02:02:05;;;;;;;4.00;3.70;;;;;;;;;;766250;77;26245;-73
2022/04/09 02:03:08;;;;;;;3.72;3.42;;;;;;;;;;766312;77;26635;-75
2022/04/09 02:04:17;;;;;;;4.20;3.80;;;;;;;;;;766263;77;26248;-73
2022/04/09 02:05:19;;;;;;;4.60;4.20;;;;;;;;;;766294;77;26302;-73
2022/04/09 02:10:27;;;;;;;4.55;4.12;;;;;;;;;;798808;74;26201;-74
2022/04/09 02:11:30;;;;;;;4.17;3.60;;;;;;;;;;798498;74;26226;-74
2022/04/09 02:12:34;;;;;;;4.95;3.52;;;;;;;;;;798715;74;26284;-73
2022/04/09 02:13:37;;;;;;;4.12;3.67;;;;;;;;;;798421;74;26284;-73
2022/04/09 02:14:41;;;;;;;4.42;3.90;;;;;;;;;;798882;74;26667;-73
2022/04/09 02:19:17;;;;;;;5.17;4.20;;;;;;;;;;786134;75;26287;-73
2022/04/09 02:20:21;;;;;;;6.17;3.20;;;;;;;;;;784772;75;26233;-74
2022/04/09 02:21:25;;;;;;;5.17;3.65;;;;;;;;;;784806;75;26298;-73
2022/04/09 02:22:30;;;;;;;4.12;3.60;;;;;;;;;;784741;75;26267;-74
2022/04/09 02:23:33;;;;;;;3.77;3.40;;;;;;;;;;784557;75;26257;-73
2022/04/09 02:24:40;;;;;;;3.90;3.60;;;;;;;;;;785233;75;26240;-72
2022/04/09 02:25:42;;;;;;;3.85;3.55;;;;;;;;;;785835;75;26233;-74
2022/04/09 02:28:46;;;;;;;3.15;2.87;;;;;;;;;;786151;75;26205;-73
2022/04/09 02:29:47;;;;;;;4.67;3.30;;;;;;;;;;786084;75;26233;-74
2022/04/09 02:30:51;;;;;;;3.40;3.20;;;;;;;;;;785774;75;26295;-73
2022/04/09 02:31:54;;;;;;;2.98;2.60;;;;;;;;;;786138;75;26236;-74
2022/04/09 02:32:58;;;;;;;3.65;3.30;;;;;;;;;;785679;75;26303;-73
2022/04/09 02:34:01;;;;;;;4.58;3.12;;;;;;;;;;785004;75;26244;-72
2022/04/09 02:35:05;;;;;;;3.83;3.00;;;;;;;;;;784880;75;26244;-72
2022/04/09 02:41:15;;;;;;;4.08;3.05;;;;;;;;;;798313;74;26143;-73
2022/04/09 02:42:18;;;;;;;3.20;2.83;;;;;;;;;;798017;74;26230;-72
2022/04/09 02:43:21;;;;;;;3.33;3.12;;;;;;;;;;798281;74;26649;-72
2022/04/09 02:44:24;;;;;;;3.62;2.90;;;;;;;;;;797822;74;26354;-72
2022/04/09 02:45:27;;;;;;;2.98;2.77;;;;;;;;;;797676;74;26296;-72
2022/04/09 02:48:21;;;;;;;2.83;2.55;;;;;;;;;;762438;78;26274;-73
2022/04/09 02:49:25;;;;;;;3.85;2.75;;;;;;;;;;745334;79;26337;-73
2022/04/09 02:50:28;;;;;;;3.40;3.12;;;;;;;;;;753323;79;26270;-72
2022/04/09 02:51:31;;;;;;;2.92;2.72;;;;;;;;;;753263;79;26738;-72
2022/04/09 02:52:36;;;;;;;3.22;3.00;;;;;;;;;;753481;79;26266;-72
2022/04/09 02:53:40;;;;;;;3.20;2.90;;;;;;;;;;753672;79;26262;-73
2022/04/09 02:54:43;;;;;;;3.05;2.55;;;;;;;;;;753779;79;26271;-73
2022/04/09 02:59:41;;;;;;;3.45;2.90;;;;;;;;;;754395;78;26190;-75
2022/04/09 03:00:44;;;;;;;4.25;3.37;;;;;;;;;;754370;78;26270;-74
2022/04/09 03:01:47;;;;;;;3.30;3.00;;;;;;;;;;754526;78;26729;-72
2022/04/09 03:02:52;;;;;;;3.60;3.30;;;;;;;;;;754894;78;26773;-72
2022/04/09 03:03:55;;;;;;;3.47;3.17;;;;;;;;;;754249;78;26266;-72
2022/04/09 03:04:57;;;;;;;3.17;2.87;;;;;;;;;;755366;78;26258;-73
2022/04/09 03:08:00;;;;;;;3.12;2.92;;;;;;;;;;760566;77;26286;-72
2022/04/09 03:09:03;;;;;;;3.40;2.90;;;;;;;;;;760496;78;26359;-72
2022/04/09 03:10:06;;;;;;;3.33;3.02;;;;;;;;;;760481;78;26259;-73
2022/04/09 03:11:12;;;;;;;3.58;2.65;;;;;;;;;;760522;78;26330;-73
2022/04/09 03:12:15;;;;;;;2.83;2.62;;;;;;;;;;760623;78;26263;-72
2022/04/09 03:13:17;;;;;;;3.08;2.85;;;;;;;;;;760591;78;26263;-72
2022/04/09 03:14:20;;;;;;;4.70;3.35;;;;;;;;;;760358;78;26255;-72
2022/04/09 03:18:55;;;;;;;4.90;4.25;;;;;;;;;;787819;75;26631;-73
2022/04/09 03:20:00;;;;;;;4.08;3.67;;;;;;;;;;787774;75;26238;-73
2022/04/09 03:21:02;;;;;;;3.83;3.52;;;;;;;;;;788122;75;26306;-73
2022/04/09 03:22:05;;;;;;;4.55;3.60;;;;;;;;;;788064;75;26784;-72
2022/04/09 03:23:08;;;;;;;3.90;3.60;;;;;;;;;;787273;75;26309;-76
2022/04/09 03:24:11;;;;;;;4.00;3.20;;;;;;;;;;787667;75;26671;-72
2022/04/09 03:25:14;;;;;;;4.58;4.10;;;;;;;;;;788221;75;26239;-74
2022/04/09 03:29:53;;;;;;;3.90;3.20;;;;;;;;;;798930;74;26293;-73
2022/04/09 03:30:55;;;;;;;4.28;3.58;;;;;;;;;;798951;74;26303;-73
2022/04/09 03:31:59;;;;;;;5.85;3.50;;;;;;;;;;799046;74;26682;-72
2022/04/09 03:33:03;;;;;;;5.03;3.45;;;;;;;;;;799055;74;26231;-73
2022/04/09 03:34:06;;;;;;;3.85;3.40;;;;;;;;;;799016;74;26309;-73
2022/04/09 03:39:00;;;;;;;4.10;3.80;;;;;;;;;;788220;75;26173;-73
2022/04/09 03:40:05;;;;;;;5.00;3.70;;;;;;;;;;788498;75;26275;-73
2022/04/09 03:41:08;;;;;;;4.30;3.90;;;;;;;;;;788454;75;26248;-72
2022/04/09 03:42:10;;;;;;;5.40;3.98;;;;;;;;;;788480;75;26716;-72
2022/04/09 03:43:15;;;;;;;3.80;3.45;;;;;;;;;;787126;75;26753;-73
2022/04/09 03:44:22;;;;;;;4.12;3.83;;;;;;;;;;788399;75;26233;-72
2022/04/09 03:52:23;;;;;;;6.20;3.75;;;;;;;;;;774416;76;26166;-73
2022/04/09 03:53:27;;;;;;;4.78;4.37;;;;;;;;;;774438;76;26239;-73
2022/04/09 03:54:34;;;;;;;4.30;3.72;;;;;;;;;;774469;76;26241;-73
2022/04/09 03:59:04;;;;;;;4.15;3.60;;;;;;;;;;799251;74;26124;-73
2022/04/09 04:00:08;;;;;;;4.97;3.92;;;;;;;;;;799236;74;26679;-73
2022/04/09 04:01:13;;;;;;;3.90;3.60;;;;;;;;;;799189;74;26217;-72
2022/04/09 04:02:16;;;;;;;4.08;3.67;;;;;;;;;;799110;74;26677;-73
2022/04/09 04:03:19;;;;;;;4.35;3.85;;;;;;;;;;799437;74;26294;-73
2022/04/09 04:04:22;;;;;;;4.22;3.92;;;;;;;;;;799091;74;26316;-73
2022/04/09 04:07:59;;;;;;;4.53;4.12;;;;;;;;;;799531;74;26145;-73
2022/04/09 04:09:02;;;;;;;4.15;3.83;;;;;;;;;;761651;77;26257;-73
2022/04/09 04:10:08;;;;;;;4.08;3.67;;;;;;;;;;759635;77;26707;-72
2022/04/09 04:11:11;;;;;;;5.33;3.60;;;;;;;;;;774636;76;26231;-73
2022/04/09 04:12:18;;;;;;;5.42;4.00;;;;;;;;;;774401;76;26606;-73
2022/04/09 04:13:20;;;;;;;4.40;3.85;;;;;;;;;;774855;76;26695;-73
2022/04/09 04:14:25;;;;;;;4.28;3.70;;;;;;;;;;774470;76;26295;-73
2022/04/09 04:17:36;;;;;;;4.00;3.70;;;;;;;;;;804765;73;26205;-72
2022/04/09 04:18:39;;;;;;;4.08;3.72;;;;;;;;;;790618;74;26676;-73
2022/04/09 04:19:42;;;;;;;5.33;3.77;;;;;;;;;;796674;73;26650;-72
2022/04/09 04:20:45;;;;;;;5.67;4.25;;;;;;;;;;804904;73;26213;-72
2022/04/09 04:21:47;;;;;;;6.50;4.60;;;;;;;;;;804979;73;26219;-72
2022/04/09 04:22:52;;;;;;;5.30;4.30;;;;;;;;;;805918;73;26294;-73
2022/04/09 04:23:56;;;;;;;4.70;4.30;;;;;;;;;;805824;73;26217;-73
2022/04/09 04:28:57;;;;;;;6.20;4.05;;;;;;;;;;759702;78;26331;-73
2022/04/09 04:30:03;;;;;;;7.12;4.65;;;;;;;;;;788591;75;26240;-73
2022/04/09 04:31:06;;;;;;;5.08;4.33;;;;;;;;;;788746;75;24691;-73
2022/04/09 04:32:10;;;;;;;6.62;5.15;;;;;;;;;;788575;75;26305;-73
2022/04/09 04:38:41;;;;;;;5.22;4.35;;;;;;;;;;759665;77;26156;-73
2022/04/09 04:39:44;;;;;;;5.20;4.20;;;;;;;;;;774823;76;26743;-73
2022/04/09 04:40:47;;;;;;;5.45;4.40;;;;;;;;;;767971;77;26705;-73
2022/04/09 04:41:50;;;;;;;4.80;4.30;;;;;;;;;;768016;77;26307;-73
2022/04/09 04:42:56;;;;;;;6.00;4.90;;;;;;;;;;757475;78;26310;-73
2022/04/09 04:43:58;;;;;;;5.10;4.60;;;;;;;;;;751238;77;26273;-75
2022/04/09 04:47:18;;;;;;;5.80;4.35;;;;;;;;;;775185;76;26392;-73
2022/04/09 04:48:20;;;;;;;5.78;4.62;;;;;;;;;;739368;80;26706;-73
2022/04/09 04:49:23;;;;;;;6.67;4.78;;;;;;;;;;764931;77;26258;-73
2022/04/09 04:50:26;;;;;;;6.90;4.90;;;;;;;;;;747139;79;26268;-73
2022/04/09 04:51:29;;;;;;;5.90;5.33;;;;;;;;;;750939;79;26324;-72
2022/04/09 04:52:32;;;;;;;8.38;7.37;;;;;;;;;;764726;77;26410;-71
2022/04/09 04:53:35;;;;;;;13.48;10.13;;;;;;;;;;747235;79;26767;-73
2022/04/09 04:54:38;;;;;;;7.87;6.42;;;;;;;;;;746369;79;26662;-73
2022/04/09 04:57:54;;;;;;;5.90;4.90;;;;;;;;;;814200;73;26224;-73
2022/04/09 04:58:56;;;;;;;5.62;4.70;;;;;;;;;;815488;73;26650;-72
2022/04/09 04:59:59;;;;;;;5.53;4.22;;;;;;;;;;815531;73;26177;-73
2022/04/09 05:01:03;;;;;;;5.30;4.80;;;;;;;;;;815562;73;26182;-72
2022/04/09 05:02:06;;;;;;;5.58;5.05;;;;;;;;;;815917;73;26175;-76
2022/04/09 05:03:09;;;;;;;5.05;4.55;;;;;;;;;;816084;73;26256;-76
2022/04/09 05:04:12;;;;;;;4.87;4.47;;;;;;;;;;816219;73;26178;-73
2022/04/09 05:07:47;;;;;;;7.00;4.70;;;;;;;;;;786675;75;26253;-74
2022/04/09 05:08:50;;;;;;;4.42;4.10;;;;;;;;;;786741;75;26702;-73
2022/04/09 05:09:53;;;;;;;5.15;4.05;;;;;;;;;;786703;75;26249;-73
2022/04/09 05:11:00;;;;;;;6.13;4.10;;;;;;;;;;786959;75;26234;-74
2022/04/09 05:12:03;;;;;;;4.50;3.97;;;;;;;;;;787935;75;26357;-74
2022/04/09 05:13:05;;;;;;;4.50;4.20;;;;;;;;;;788341;75;26658;-73
2022/04/09 05:14:08;;;;;;;4.90;4.10;;;;;;;;;;788499;75;26605;-75
2022/04/09 05:18:59;;;;;;;7.23;3.80;;;;;;;;;;786710;75;26946;-73
2022/04/09 05:28:39;;;;;;;8.70;4.83;;;;;;;;;;775620;76;26884;-74
2022/04/09 05:29:52;;;;;;;5.00;4.50;;;;;;;;;;775767;76;26541;-74
2022/04/09 05:30:55;;;;;;;5.70;4.00;;;;;;;;;;775875;76;26447;-72
2022/04/09 05:32:00;;;;;;;4.60;4.10;;;;;;;;;;776005;76;26922;-77
2022/04/09 05:33:13;;;;;;;6.30;4.10;;;;;;;;;;776062;76;26303;-76
2022/04/09 05:41:15;;;;;;;5.63;4.83;;;;;;;;;;787263;74;26395;-74
2022/04/09 05:42:18;;;;;;;5.17;4.67;;;;;;;;;;787281;75;26480;-74
2022/04/09 05:43:23;;;;;;;5.10;4.60;;;;;;;;;;787388;75;26472;-75
2022/04/09 05:44:27;;;;;;;5.30;4.37;;;;;;;;;;787387;75;26305;-76
2022/04/09 05:47:33;;;;;;;4.40;4.00;;;;;;;;;;787832;75;26382;-74
2022/04/09 05:48:37;;;;;;;4.17;3.50;;;;;;;;;;787707;75;26515;-75
2022/04/09 05:49:40;;;;;;;4.80;3.73;;;;;;;;;;787520;75;26814;-75
2022/04/09 05:50:43;;;;;;;4.30;3.43;;;;;;;;;;787361;75;26929;-73
2022/04/09 05:51:45;;;;;;;3.50;3.20;;;;;;;;;;787414;75;26526;-76
2022/04/09 05:52:51;;;;;;;3.97;3.60;;;;;;;;;;787473;75;26477;-75
2022/04/09 05:53:55;;;;;;;4.40;3.97;;;;;;;;;;787777;75;26480;-76
2022/04/09 05:58:26;;;;;;;5.83;3.80;;;;;;;;;;773275;76;26567;-73
2022/04/09 05:59:30;;;;;;;4.43;4.03;;;;;;;;;;773367;76;26491;-76
2022/04/09 06:00:34;;;;;;;4.37;3.97;;;;;;;;;;773328;76;26923;-73
2022/04/09 06:01:37;;;;;;;5.93;3.73;;;;;;;;;;773341;76;26828;-73
2022/04/09 06:02:42;;;;;;;3.60;3.30;;;;;;;;;;773618;76;27040;-75
2022/04/09 06:03:44;;;;;;;3.77;3.47;;;;;;;;;;773449;76;26317;-76
2022/04/09 06:17:31;;;;;;;5.00;3.67;;;;;;;;;;746623;79;26275;-75
2022/04/09 06:18:39;;;;;;;5.27;4.87;;;;;;;;;;747300;79;26790;-74
2022/04/09 06:19:43;;;;;;;6.07;5.00;;;;;;;;;;747282;79;26553;-75
2022/04/09 06:20:46;;;;;;;5.77;5.13;;;;;;;;;;747215;79;26486;-75
2022/04/09 06:21:49;;;;;;;6.40;4.90;;;;;;;;;;747279;79;26492;-75
2022/04/09 06:22:55;;;;;;;5.00;4.60;;;;;;;;;;747194;79;26468;-76
2022/04/09 06:24:00;;;;;;;6.40;4.87;;;;;;;;;;747347;79;26337;-74
2022/04/09 06:27:35;;;;;;;6.57;4.73;;;;;;;;;;747692;79;26394;-74
2022/04/09 06:28:39;;;;;;;5.20;4.33;;;;;;;;;;756591;78;26439;-75
2022/04/09 06:29:42;;;;;;;9.70;7.17;;;;;;;;;;756522;78;26443;-75
2022/04/09 06:30:45;;;;;;;12.53;9.93;;;;;;;;;;757563;77;26935;-74
2022/04/09 06:31:48;;;;;;;8.50;6.30;;;;;;;;;;757799;78;26491;-73
2022/04/09 06:32:52;;;;;;;6.93;6.00;;;;;;;;;;757781;78;26486;-75
2022/04/09 06:39:00;;;;;;;4.60;4.20;;;;;;;;;;783998;75;26139;-75
2022/04/09 06:40:07;;;;;;;5.92;4.50;;;;;;;;;;784752;75;26666;-74
2022/04/09 06:41:11;;;;;;;4.70;4.30;;;;;;;;;;784925;75;26239;-74
2022/04/09 06:42:14;;;;;;;5.65;4.20;;;;;;;;;;785005;75;26246;-75
2022/04/09 06:43:17;;;;;;;5.22;4.10;;;;;;;;;;784882;75;26698;-74
2022/04/09 06:47:38;;;;;;;5.50;3.80;;;;;;;;;;785047;75;26678;-73
2022/04/09 06:48:56;;;;;;;5.35;4.70;;;;;;;;;;785037;75;26282;-72
2022/04/09 06:50:09;;;;;;;8.20;4.92;;;;;;;;;;784841;75;26256;-74
2022/04/09 06:51:13;;;;;;;6.03;4.30;;;;;;;;;;783281;75;26243;-74
2022/04/09 06:52:16;;;;;;;7.03;4.17;;;;;;;;;;786027;75;26312;-73
2022/04/09 06:53:19;;;;;;;5.87;4.40;;;;;;;;;;786133;75;26516;-75
2022/04/09 06:59:53;;;;;;;8.70;7.30;;;;;;;;;;815228;71;26290;-75
2022/04/09 07:00:56;;;;;;;8.60;7.07;;;;;;;;;;830136;71;26220;-72
2022/04/09 07:02:01;;;;;;;8.10;6.53;;;;;;;;;;829488;71;26526;-75
2022/04/09 07:03:05;;;;;;;7.90;6.20;;;;;;;;;;829554;71;26591;-73
2022/04/09 07:07:31;;;;;;;4.77;4.33;;;;;;;;;;794798;74;26463;-73
2022/04/09 07:08:34;;;;;;;4.97;4.03;;;;;;;;;;794876;74;26961;-72
2022/04/09 07:09:37;;;;;;;6.33;4.10;;;;;;;;;;794955;74;26901;-73
2022/04/09 07:10:41;;;;;;;5.63;4.30;;;;;;;;;;794851;74;26478;-74
2022/04/09 07:11:44;;;;;;;5.37;4.23;;;;;;;;;;791300;74;26868;-76
2022/04/09 07:12:52;;;;;;;4.33;3.93;;;;;;;;;;795026;74;26357;-75
2022/04/09 07:13:57;;;;;;;5.77;4.13;;;;;;;;;;794930;74;26992;-76
2022/04/09 07:16:46;;;;;;;6.00;4.07;;;;;;;;;;790551;75;27030;-77
2022/04/09 07:17:49;;;;;;;6.77;4.30;;;;;;;;;;790532;75;26507;-76
2022/04/09 07:18:52;;;;;;;7.60;4.57;;;;;;;;;;790542;75;26540;-77
2022/04/09 07:20:00;;;;;;;4.87;4.47;;;;;;;;;;783360;76;26478;-77
2022/04/09 07:21:04;;;;;;;5.10;4.60;;;;;;;;;;792206;75;26480;-79
2022/04/09 07:22:09;;;;;;;8.40;4.70;;;;;;;;;;792342;75;26469;-77
2022/04/09 07:23:12;;;;;;;5.03;4.40;;;;;;;;;;792332;75;26458;-74
2022/04/09 07:27:49;;;;;;;5.80;3.60;;;;;;;;;;777249;76;26483;-71
2022/04/09 07:28:56;;;;;;;4.23;3.80;;;;;;;;;;777118;76;26620;-73
2022/04/09 07:30:00;;;;;;;4.43;4.03;;;;;;;;;;777222;76;26366;-72
2022/04/09 07:31:06;;;;;;;4.70;4.20;;;;;;;;;;777396;76;26432;-74
2022/04/09 07:32:10;;;;;;;7.30;3.93;;;;;;;;;;770051;77;26939;-76
2022/04/09 07:33:14;;;;;;;5.07;4.23;;;;;;;;;;777159;76;26850;-73
2022/04/09 07:38:12;;;;;;;3.83;3.50;;;;;;;;;;786523;75;26468;-72
2022/04/09 07:39:19;;;;;;;5.13;4.27;;;;;;;;;;786373;75;26475;-72
2022/04/09 07:40:25;;;;;;;5.10;4.00;;;;;;;;;;786459;75;26387;-72
2022/04/09 07:41:28;;;;;;;5.50;4.20;;;;;;;;;;786231;75;26616;-72
2022/04/09 07:42:31;;;;;;;4.40;4.00;;;;;;;;;;786219;75;26463;-72
2022/04/09 07:50:44;;;;;;;7.00;5.10;;;;;;;;;;764178;77;26516;-76
2022/04/09 07:51:49;;;;;;;6.90;4.60;;;;;;;;;;772630;77;26404;-78
2022/04/09 07:52:53;;;;;;;6.47;4.70;;;;;;;;;;777181;76;26497;-77
2022/04/09 07:58:33;;;;;;;21.10;15.67;;;;;;;;;;768141;77;26596;-73
2022/04/09 07:59:36;;;;;;;14.77;11.03;;;;;;;;;;768090;77;26502;-72
2022/04/09 08:00:39;;;;;;;7.13;6.43;;;;;;;;;;781328;76;26370;-75
2022/04/09 08:01:42;;;;;;;6.07;5.53;;;;;;;;;;781368;76;26397;-77
2022/04/09 08:02:46;;;;;;;4.93;4.40;;;;;;;;;;781350;76;26414;-77
2022/04/09 08:05:44;;;;;;;10.47;4.77;;;;;;;;;;803777;73;26485;-76
2022/04/09 08:06:46;;;;;;;5.27;4.60;;;;;;;;;;812639;73;26910;-76
2022/04/09 08:07:49;;;;;;;5.30;4.80;;;;;;;;;;812770;73;26400;-77
2022/04/09 08:08:52;;;;;;;5.83;4.60;;;;;;;;;;812783;73;26391;-75
2022/04/09 08:09:55;;;;;;;6.23;4.90;;;;;;;;;;812693;73;26488;-76
2022/04/09 08:10:57;;;;;;;5.97;4.30;;;;;;;;;;812702;73;26512;-75
2022/04/09 08:12:00;;;;;;;5.80;4.70;;;;;;;;;;812846;73;26766;-76
2022/04/09 08:13:03;;;;;;;6.30;5.23;;;;;;;;;;812953;73;26903;-76
2022/04/09 08:17:32;;;;;;;4.47;4.07;;;;;;;;;;830597;71;26796;-76
2022/04/09 08:18:37;;;;;;;4.90;4.40;;;;;;;;;;810051;73;26519;-76
2022/04/09 08:19:40;;;;;;;4.93;4.47;;;;;;;;;;810133;73;26444;-76
2022/04/09 08:20:43;;;;;;;5.33;4.13;;;;;;;;;;832725;71;26431;-77
2022/04/09 08:21:45;;;;;;;5.10;4.70;;;;;;;;;;810287;73;26836;-76
2022/04/09 08:22:49;;;;;;;8.87;5.03;;;;;;;;;;833388;71;26545;-76
2022/04/09 08:26:17;;;;;;;4.87;4.30;;;;;;;;;;833266;71;26281;-76
2022/04/09 08:27:20;;;;;;;5.73;4.33;;;;;;;;;;780826;76;26466;-76
2022/04/09 08:28:25;;;;;;;4.47;4.07;;;;;;;;;;792845;75;26493;-76
2022/04/09 08:29:28;;;;;;;4.90;4.40;;;;;;;;;;792781;75;26606;-76
2022/04/09 08:30:30;;;;;;;7.03;4.27;;;;;;;;;;792898;75;26466;-76
2022/04/09 08:36:39;;;;;;;6.80;4.20;;;;;;;;;;797086;73;26581;-76
2022/04/09 08:37:42;;;;;;;4.37;4.00;;;;;;;;;;812047;73;26528;-77
2022/04/09 08:38:44;;;;;;;5.70;4.33;;;;;;;;;;812318;73;26514;-78
2022/04/09 08:39:48;;;;;;;7.97;6.23;;;;;;;;;;812005;73;26563;-77
2022/04/09 08:40:51;;;;;;;14.50;11.13;;;;;;;;;;812075;73;26579;-76
2022/04/09 08:41:56;;;;;;;7.93;6.43;;;;;;;;;;812660;73;26448;-76
2022/04/09 08:42:59;;;;;;;8.77;5.23;;;;;;;;;;813318;73;26499;-77
2022/04/09 08:46:06;;;;;;;4.90;4.50;;;;;;;;;;812641;73;26823;-76
2022/04/09 08:47:12;;;;;;;4.87;4.33;;;;;;;;;;812584;73;26503;-77
2022/04/09 08:48:17;;;;;;;5.00;4.00;;;;;;;;;;812512;73;26567;-77
2022/04/09 08:49:20;;;;;;;3.80;3.50;;;;;;;;;;812586;73;26888;-77
2022/04/09 08:50:23;;;;;;;3.97;3.63;;;;;;;;;;812619;73;26445;-78
2022/04/09 08:51:26;;;;;;;6.53;3.50;;;;;;;;;;812656;73;26521;-76
2022/04/09 08:52:31;;;;;;;3.40;3.10;;;;;;;;;;812079;73;26573;-76
2022/04/09 08:56:55;;;;;;;4.93;3.90;;;;;;;;;;799174;73;26623;-78
2022/04/09 08:57:58;;;;;;;5.63;3.80;;;;;;;;;;784760;75;27075;-77
2022/04/09 08:59:01;;;;;;;5.33;3.80;;;;;;;;;;783997;75;27038;-77
2022/04/09 09:00:07;;;;;;;4.57;3.60;;;;;;;;;;784312;75;26700;-78
2022/04/09 09:01:10;;;;;;;8.13;3.93;;;;;;;;;;784154;75;26805;-77
2022/04/09 09:02:13;;;;;;;5.10;3.70;;;;;;;;;;783808;75;27072;-76
2022/04/09 09:06:27;;;;;;;4.07;3.67;;;;;;;;;;789751;73;26577;-77
2022/04/09 09:07:30;;;;;;;4.10;3.70;;;;;;;;;;784947;75;26593;-77
2022/04/09 09:08:41;;;;;;;4.10;3.43;;;;;;;;;;785650;75;26588;-79
2022/04/09 09:09:44;;;;;;;3.53;3.23;;;;;;;;;;784704;75;26603;-78
2022/04/09 09:10:48;;;;;;;3.40;3.10;;;;;;;;;;784701;75;26744;-77
2022/04/09 09:11:52;;;;;;;3.23;3.00;;;;;;;;;;783366;74;26776;-77
2022/04/09 09:13:00;;;;;;;3.50;2.90;;;;;;;;;;784473;75;26692;-78
2022/04/09 09:17:14;;;;;;;3.47;3.17;;;;;;;;;;771478;77;26663;-76
2022/04/09 09:18:18;;;;;;;3.70;2.60;;;;;;;;;;772234;77;26658;-78
2022/04/09 09:19:21;;;;;;;5.00;2.67;;;;;;;;;;771141;76;26697;-77
2022/04/09 09:26:30;;;;;;;5.20;2.90;;;;;;;;;;808737;73;26614;-77
2022/04/09 09:27:33;;;;;;;3.37;3.07;;;;;;;;;;810720;73;27081;-77
2022/04/09 09:28:35;;;;;;;4.10;2.90;;;;;;;;;;810649;73;27094;-76
2022/04/09 09:29:42;;;;;;;2.90;2.60;;;;;;;;;;810725;73;26586;-78
2022/04/09 09:30:51;;;;;;;3.60;3.10;;;;;;;;;;810588;73;26746;-77
2022/04/09 09:31:55;;;;;;;4.83;3.20;;;;;;;;;;810770;73;26701;-77
2022/04/09 09:33:08;;;;;;;2.97;2.73;;;;;;;;;;810711;73;26575;-78
2022/04/09 09:36:16;;;;;;;7.33;4.03;;;;;;;;;;810966;73;26615;-76
2022/04/09 09:37:24;;;;;;;4.73;3.53;;;;;;;;;;751509;79;26672;-78
2022/04/09 09:38:29;;;;;;;3.40;3.20;;;;;;;;;;780762;76;26709;-79
2022/04/09 09:39:36;;;;;;;4.17;3.40;;;;;;;;;;780762;76;26756;-79
2022/04/09 09:40:38;;;;;;;3.47;3.10;;;;;;;;;;780937;76;26764;-77
2022/04/09 09:41:49;;;;;;;4.07;3.10;;;;;;;;;;780790;76;27157;-79
2022/04/09 09:42:55;;;;;;;3.67;3.30;;;;;;;;;;780849;76;26715;-78
2022/04/09 09:46:42;;;;;;;4.00;3.10;;;;;;;;;;764422;77;26751;-77
2022/04/09 09:47:57;;;;;;;5.00;2.80;;;;;;;;;;778165;76;26806;-77
2022/04/09 09:49:01;;;;;;;5.50;2.83;;;;;;;;;;777081;76;26932;-78
2022/04/09 09:50:04;;;;;;;10.53;7.00;;;;;;;;;;778064;76;27411;-77
2022/04/09 09:51:07;;;;;;;5.30;4.80;;;;;;;;;;778127;76;27028;-79
2022/04/09 09:52:10;;;;;;;12.20;11.10;;;;;;;;;;762013;78;27009;-78
2022/04/09 09:56:37;;;;;;;3.50;3.20;;;;;;;;;;778194;76;27436;-77
2022/04/09 09:57:40;;;;;;;3.37;3.07;;;;;;;;;;764409;77;27094;-77
2022/04/09 09:58:43;;;;;;;4.13;2.83;;;;;;;;;;778135;76;27463;-75
2022/04/09 09:59:48;;;;;;;4.43;3.40;;;;;;;;;;762411;77;27404;-77
2022/04/09 10:00:51;;;;;;;3.30;3.00;;;;;;;;;;763243;78;26940;-73
2022/04/09 10:01:56;;;;;;;6.43;3.10;;;;;;;;;;778196;76;27447;-75
2022/04/09 10:05:23;;;;;;;4.77;3.37;;;;;;;;;;795043;74;27007;-75
2022/04/09 10:06:29;;;;;;;4.80;3.30;;;;;;;;;;794487;74;26992;-75
2022/04/09 10:07:34;;;;;;;3.10;2.80;;;;;;;;;;794967;74;26920;-75
2022/04/09 10:08:40;;;;;;;2.93;2.63;;;;;;;;;;795004;74;26904;-75
2022/04/09 10:09:42;;;;;;;2.87;2.57;;;;;;;;;;794980;74;26906;-75
2022/04/09 10:12:48;;;;;;;6.00;2.73;;;;;;;;;;795322;74;26969;-74
2022/04/09 10:19:11;;;;;;;3.00;2.60;;;;;;;;;;768922;77;26912;-75
2022/04/09 10:20:14;;;;;;;3.57;2.80;;;;;;;;;;768862;77;27389;-76
2022/04/09 10:21:17;;;;;;;3.67;2.70;;;;;;;;;;768852;77;26998;-76
2022/04/09 10:22:21;;;;;;;2.90;2.30;;;;;;;;;;768705;77;26956;-74
2022/04/09 10:25:27;;;;;;;2.80;2.33;;;;;;;;;;760077;78;27070;-76
2022/04/09 10:26:33;;;;;;;2.43;2.23;;;;;;;;;;759930;78;26950;-77
2022/04/09 10:27:38;;;;;;;2.37;2.20;;;;;;;;;;759991;78;27414;-76
2022/04/09 10:28:47;;;;;;;3.13;2.40;;;;;;;;;;759270;78;27006;-78
2022/04/09 10:29:52;;;;;;;4.13;2.30;;;;;;;;;;759903;78;27047;-76
2022/04/09 10:30:54;;;;;;;3.40;2.50;;;;;;;;;;759906;78;27458;-77
2022/04/09 10:31:57;;;;;;;2.03;1.90;;;;;;;;;;759892;78;27023;-75
2022/04/09 10:37:39;;;;;;;2.90;2.10;;;;;;;;;;786534;73;26976;-77
2022/04/09 10:38:41;;;;;;;2.70;2.50;;;;;;;;;;783068;75;27421;-77
2022/04/09 10:39:45;;;;;;;2.30;2.10;;;;;;;;;;780553;76;26992;-75
2022/04/09 10:40:52;;;;;;;2.27;2.17;;;;;;;;;;803300;74;27380;-78
2022/04/09 10:41:57;;;;;;;2.57;2.23;;;;;;;;;;803358;74;26942;-76
2022/04/09 10:46:31;;;;;;;3.53;2.40;;;;;;;;;;777809;76;26949;-77
2022/04/09 10:47:38;;;;;;;2.00;1.90;;;;;;;;;;777892;76;26908;-76
2022/04/09 10:48:44;;;;;;;2.90;2.43;;;;;;;;;;775140;76;26997;-80
2022/04/09 10:50:05;;;;;;;5.23;2.50;;;;;;;;;;777515;76;26944;-76
2022/04/09 10:51:09;;;;;;;2.50;2.40;;;;;;;;;;777379;76;26981;-77
2022/04/09 10:52:18;;;;;;;2.47;2.30;;;;;;;;;;776511;76;27498;-75
2022/04/09 10:56:51;;;;;;;4.13;2.50;;;;;;;;;;754188;78;27003;-75
2022/04/09 10:57:56;;;;;;;3.37;2.10;;;;;;;;;;754300;78;27025;-78
2022/04/09 10:59:08;;;;;;;2.23;2.03;;;;;;;;;;755558;78;27466;-78
2022/04/09 11:09:18;;;;;;;3.13;2.10;;;;;;;;;;735122;78;26939;-75
2022/04/09 11:10:23;;;;;;;3.23;2.57;;;;;;;;;;753959;78;27043;-75
2022/04/09 11:11:28;;;;;;;2.77;2.57;;;;;;;;;;741767;80;26969;-76
2022/04/09 11:16:04;;;;;;;2.50;1.97;;;;;;;;;;754167;78;26996;-76
2022/04/09 11:17:18;;;;;;;2.73;2.50;;;;;;;;;;741881;80;26980;-77
2022/04/09 11:18:23;;;;;;;2.30;2.10;;;;;;;;;;741751;80;26979;-76
2022/04/09 11:19:29;;;;;;;2.90;2.07;;;;;;;;;;738787;80;26999;-76
2022/04/09 11:20:34;;;;;;;2.40;2.20;;;;;;;;;;770816;77;26981;-77
2022/04/09 11:21:38;;;;;;;2.90;2.70;;;;;;;;;;770801;77;27488;-76
2022/04/09 11:24:57;;;;;;;2.40;2.20;;;;;;;;;;771721;77;27408;-77
2022/04/09 11:26:00;;;;;;;2.20;2.00;;;;;;;;;;798672;74;26912;-76
2022/04/09 11:27:04;;;;;;;2.50;2.30;;;;;;;;;;798697;74;26981;-76
2022/04/09 11:28:13;;;;;;;2.97;2.67;;;;;;;;;;798622;74;27435;-77
2022/04/09 11:29:15;;;;;;;3.87;2.33;;;;;;;;;;798559;74;26978;-75
2022/04/09 11:30:21;;;;;;;3.90;2.70;;;;;;;;;;798592;74;26917;-76
2022/04/09 11:31:24;;;;;;;5.33;2.27;;;;;;;;;;798669;74;27393;-77
2022/04/09 11:34:43;;;;;;;2.97;2.60;;;;;;;;;;798969;74;26908;-77
2022/04/09 11:35:52;;;;;;;2.67;2.47;;;;;;;;;;784309;75;26937;-77
2022/04/09 11:41:01;;;;;;;3.03;2.73;;;;;;;;;;798909;73;27356;-76
2022/04/09 11:46:04;;;;;;;2.57;2.23;;;;;;;;;;817962;72;26886;-78